sensor_id;sensor_type;location;lat;lon;timestamp;P1;durP1;ratioP1;P2;durP2;ratioP2
32850;SDS011;19202;48.992;8.390;2022-10-18T00:02:11;11.93;;;4.35;;
32850;SDS011;19202;48.992;8.390;2022-10-18T00:07:49;7.82;;;3.92;;
32850;SDS011;19202;48.992;8.390;2022-10-18T00:13:27;9.55;;;4.45;;
32850;SDS011;19202;48.992;8.390;2022-10-18T00:19:04;14.88;;;4.50;;
32850;SDS011;19202;48.992;8.390;2022-10-18T00:24:42;8.18;;;3.83;;
32850;SDS011;19202;48.992;8.390;2022-10-18T00:30:21;15.15;;;3.58;;
32850;SDS011;19202;48.992;8.390;2022-10-18T00:35:59;8.80;;;3.28;;
32850;SDS011;19202;48.992;8.390;2022-10-18T00:41:37;12.43;;;3.85;;
32850;SDS011;19202;48.992;8.390;2022-10-18T00:47:15;7.38;;;3.65;;
32850;SDS011;19202;48.992;8.390;2022-10-18T00:52:55;12.32;;;3.60;;
32850;SDS011;19202;48.992;8.390;2022-10-18T00:58:36;10.43;;;3.42;;
32850;SDS011;19202;48.992;8.390;2022-10-18T01:04:14;11.93;;;3.25;;
32850;SDS011;19202;48.992;8.390;2022-10-18T01:16:10;7.25;;;3.40;;
32850;SDS011;19202;48.992;8.390;2022-10-18T01:22:08;7.70;;;3.60;;
32850;SDS011;19202;48.992;8.390;2022-10-18T01:33:50;8.13;;;3.17;;
32850;SDS011;19202;48.992;8.390;2022-10-18T01:39:35;7.57;;;3.50;;
32850;SDS011;19202;48.992;8.390;2022-10-18T01:45:17;7.07;;;3.35;;
32850;SDS011;19202;48.992;8.390;2022-10-18T01:50:58;6.45;;;3.25;;
32850;SDS011;19202;48.992;8.390;2022-10-18T02:08:27;8.82;;;3.30;;
32850;SDS011;19202;48.992;8.390;2022-10-18T02:14:10;5.20;;;3.00;;
32850;SDS011;19202;48.992;8.390;2022-10-18T02:19:51;7.57;;;2.95;;
32850;SDS011;19202;48.992;8.390;2022-10-18T02:25:32;6.20;;;3.05;;
32850;SDS011;19202;48.992;8.390;2022-10-18T02:31:14;12.90;;;3.45;;
32850;SDS011;19202;48.992;8.390;2022-10-18T02:36:57;10.32;;;3.42;;
32850;SDS011;19202;48.992;8.390;2022-10-18T02:42:38;16.58;;;3.25;;
32850;SDS011;19202;48.992;8.390;2022-10-18T02:48:22;8.73;;;3.37;;
32850;SDS011;19202;48.992;8.390;2022-10-18T02:53:59;13.30;;;3.22;;
32850;SDS011;19202;48.992;8.390;2022-10-18T02:59:37;12.35;;;3.38;;
32850;SDS011;19202;48.992;8.390;2022-10-18T03:05:15;6.80;;;3.28;;
32850;SDS011;19202;48.992;8.390;2022-10-18T03:10:53;3.40;;;3.10;;
32850;SDS011;19202;48.992;8.390;2022-10-18T03:16:31;6.00;;;3.42;;
32850;SDS011;19202;48.992;8.390;2022-10-18T03:22:10;6.13;;;3.50;;
32850;SDS011;19202;48.992;8.390;2022-10-18T03:27:48;12.35;;;3.85;;
32850;SDS011;19202;48.992;8.390;2022-10-18T03:33:26;11.05;;;3.72;;
32850;SDS011;19202;48.992;8.390;2022-10-18T03:39:04;9.45;;;3.60;;
32850;SDS011;19202;48.992;8.390;2022-10-18T03:44:42;7.10;;;3.35;;
32850;SDS011;19202;48.992;8.390;2022-10-18T03:50:20;10.98;;;3.72;;
32850;SDS011;19202;48.992;8.390;2022-10-18T03:55:58;21.05;;;9.38;;
32850;SDS011;19202;48.992;8.390;2022-10-18T04:01:36;6.68;;;3.40;;
32850;SDS011;19202;48.992;8.390;2022-10-18T04:07:14;10.77;;;3.50;;
32850;SDS011;19202;48.992;8.390;2022-10-18T04:12:52;6.68;;;3.67;;
32850;SDS011;19202;48.992;8.390;2022-10-18T04:18:29;10.32;;;3.35;;
32850;SDS011;19202;48.992;8.390;2022-10-18T04:24:08;8.18;;;3.22;;
32850;SDS011;19202;48.992;8.390;2022-10-18T04:29:45;18.85;;;10.65;;
32850;SDS011;19202;48.992;8.390;2022-10-18T04:35:23;6.70;;;3.38;;
32850;SDS011;19202;48.992;8.390;2022-10-18T04:41:02;10.45;;;4.00;;
32850;SDS011;19202;48.992;8.390;2022-10-18T04:46:40;11.15;;;4.43;;
32850;SDS011;19202;48.992;8.390;2022-10-18T04:52:18;18.02;;;7.72;;
32850;SDS011;19202;48.992;8.390;2022-10-18T04:57:56;10.32;;;3.95;;
32850;SDS011;19202;48.992;8.390;2022-10-18T05:03:34;6.95;;;3.20;;
32850;SDS011;19202;48.992;8.390;2022-10-18T05:09:13;8.38;;;3.30;;
32850;SDS011;19202;48.992;8.390;2022-10-18T05:14:50;7.43;;;3.33;;
32850;SDS011;19202;48.992;8.390;2022-10-18T05:20:28;10.48;;;3.38;;
32850;SDS011;19202;48.992;8.390;2022-10-18T05:26:06;12.18;;;3.35;;
32850;SDS011;19202;48.992;8.390;2022-10-18T05:31:46;5.28;;;3.47;;
32850;SDS011;19202;48.992;8.390;2022-10-18T05:37:25;8.52;;;3.38;;
32850;SDS011;19202;48.992;8.390;2022-10-18T05:43:03;7.65;;;3.90;;
32850;SDS011;19202;48.992;8.390;2022-10-18T05:48:41;9.15;;;3.40;;
32850;SDS011;19202;48.992;8.390;2022-10-18T05:54:21;8.25;;;3.70;;
32850;SDS011;19202;48.992;8.390;2022-10-18T05:59:59;11.15;;;4.22;;
32850;SDS011;19202;48.992;8.390;2022-10-18T06:05:36;14.77;;;4.70;;
32850;SDS011;19202;48.992;8.390;2022-10-18T06:11:15;21.20;;;5.07;;
32850;SDS011;19202;48.992;8.390;2022-10-18T06:16:55;7.05;;;4.55;;
32850;SDS011;19202;48.992;8.390;2022-10-18T06:22:33;9.30;;;4.88;;
32850;SDS011;19202;48.992;8.390;2022-10-18T06:28:11;12.43;;;4.18;;
32850;SDS011;19202;48.992;8.390;2022-10-18T06:33:49;9.60;;;4.22;;
32850;SDS011;19202;48.992;8.390;2022-10-18T06:39:27;13.35;;;5.93;;
32850;SDS011;19202;48.992;8.390;2022-10-18T06:45:05;7.88;;;4.13;;
32850;SDS011;19202;48.992;8.390;2022-10-18T06:50:50;9.23;;;4.50;;
32850;SDS011;19202;48.992;8.390;2022-10-18T06:56:32;9.95;;;4.05;;
32850;SDS011;19202;48.992;8.390;2022-10-18T07:02:13;11.85;;;4.35;;
32850;SDS011;19202;48.992;8.390;2022-10-18T07:07:52;9.93;;;4.22;;
32850;SDS011;19202;48.992;8.390;2022-10-18T07:13:31;12.45;;;4.20;;
32850;SDS011;19202;48.992;8.390;2022-10-18T07:19:10;11.43;;;4.53;;
32850;SDS011;19202;48.992;8.390;2022-10-18T07:24:48;11.63;;;4.88;;
32850;SDS011;19202;48.992;8.390;2022-10-18T07:30:26;14.18;;;5.28;;
32850;SDS011;19202;48.992;8.390;2022-10-18T07:36:05;7.82;;;5.20;;
32850;SDS011;19202;48.992;8.390;2022-10-18T07:41:45;10.23;;;5.18;;
32850;SDS011;19202;48.992;8.390;2022-10-18T07:47:23;12.35;;;7.25;;
32850;SDS011;19202;48.992;8.390;2022-10-18T07:53:01;11.82;;;5.20;;
32850;SDS011;19202;48.992;8.390;2022-10-18T07:58:38;10.30;;;5.30;;
32850;SDS011;19202;48.992;8.390;2022-10-18T08:04:16;13.75;;;5.53;;
32850;SDS011;19202;48.992;8.390;2022-10-18T08:09:54;11.68;;;6.93;;
32850;SDS011;19202;48.992;8.390;2022-10-18T08:15:32;10.43;;;6.13;;
32850;SDS011;19202;48.992;8.390;2022-10-18T08:21:11;10.02;;;5.30;;
32850;SDS011;19202;48.992;8.390;2022-10-18T08:26:50;11.73;;;5.55;;
32850;SDS011;19202;48.992;8.390;2022-10-18T08:32:27;11.50;;;5.63;;
32850;SDS011;19202;48.992;8.390;2022-10-18T08:38:05;9.70;;;4.68;;
32850;SDS011;19202;48.992;8.390;2022-10-18T08:49:45;14.30;;;5.13;;
32850;SDS011;19202;48.992;8.390;2022-10-18T08:55:40;9.07;;;3.78;;
32850;SDS011;19202;48.992;8.390;2022-10-18T09:07:36;7.85;;;3.10;;
32850;SDS011;19202;48.992;8.390;2022-10-18T09:25:45;6.82;;;3.63;;
32850;SDS011;19202;48.992;8.390;2022-10-18T09:31:36;5.40;;;3.50;;
32850;SDS011;19202;48.992;8.390;2022-10-18T09:37:17;6.68;;;3.67;;
32850;SDS011;19202;48.992;8.390;2022-10-18T09:42:58;10.25;;;3.83;;
32850;SDS011;19202;48.992;8.390;2022-10-18T09:48:50;6.55;;;3.78;;
32850;SDS011;19202;48.992;8.390;2022-10-18T09:54:42;7.93;;;3.60;;
32850;SDS011;19202;48.992;8.390;2022-10-18T10:11:49;6.03;;;3.08;;
32850;SDS011;19202;48.992;8.390;2022-10-18T10:17:28;12.15;;;3.55;;
32850;SDS011;19202;48.992;8.390;2022-10-18T10:23:15;5.65;;;3.08;;
32850;SDS011;19202;48.992;8.390;2022-10-18T10:29:37;6.05;;;2.60;;
32850;SDS011;19202;48.992;8.390;2022-10-18T10:41:19;5.88;;;2.75;;
32850;SDS011;19202;48.992;8.390;2022-10-18T10:46:58;9.57;;;3.15;;
32850;SDS011;19202;48.992;8.390;2022-10-18T10:52:36;5.78;;;2.58;;
32850;SDS011;19202;48.992;8.390;2022-10-18T10:58:16;11.57;;;2.50;;
32850;SDS011;19202;48.992;8.390;2022-10-18T11:03:56;8.63;;;3.30;;
32850;SDS011;19202;48.992;8.390;2022-10-18T11:15:40;2.72;;;2.22;;
32850;SDS011;19202;48.992;8.390;2022-10-18T11:21:27;7.15;;;2.53;;
32850;SDS011;19202;48.992;8.390;2022-10-18T11:27:10;4.70;;;2.33;;
32850;SDS011;19202;48.992;8.390;2022-10-18T11:33:31;4.57;;;2.53;;
32850;SDS011;19202;48.992;8.390;2022-10-18T11:39:25;3.70;;;2.30;;
32850;SDS011;19202;48.992;8.390;2022-10-18T12:03:22;2.85;;;2.03;;
32850;SDS011;19202;48.992;8.390;2022-10-18T12:15:22;4.90;;;1.83;;
32850;SDS011;19202;48.992;8.390;2022-10-18T12:21:03;1.85;;;1.60;;
32850;SDS011;19202;48.992;8.390;2022-10-18T12:26:43;3.35;;;2.08;;
32850;SDS011;19202;48.992;8.390;2022-10-18T12:32:26;2.38;;;1.70;;
32850;SDS011;19202;48.992;8.390;2022-10-18T12:38:17;4.60;;;1.77;;
32850;SDS011;19202;48.992;8.390;2022-10-18T12:44:03;3.05;;;1.70;;
32850;SDS011;19202;48.992;8.390;2022-10-18T12:49:58;8.65;;;1.98;;
32850;SDS011;19202;48.992;8.390;2022-10-18T12:55:49;4.22;;;1.38;;
32850;SDS011;19202;48.992;8.390;2022-10-18T13:01:39;3.47;;;1.30;;
32850;SDS011;19202;48.992;8.390;2022-10-18T13:07:33;2.35;;;1.33;;
32850;SDS011;19202;48.992;8.390;2022-10-18T13:13:18;2.35;;;1.60;;
32850;SDS011;19202;48.992;8.390;2022-10-18T13:19:27;2.42;;;1.45;;
32850;SDS011;19202;48.992;8.390;2022-10-18T13:37:00;3.58;;;2.10;;
32850;SDS011;19202;48.992;8.390;2022-10-18T13:42:41;2.80;;;2.30;;
32850;SDS011;19202;48.992;8.390;2022-10-18T13:54:09;4.13;;;2.88;;
32850;SDS011;19202;48.992;8.390;2022-10-18T14:06:05;3.83;;;3.05;;
32850;SDS011;19202;48.992;8.390;2022-10-18T14:12:00;3.55;;;3.15;;
32850;SDS011;19202;48.992;8.390;2022-10-18T14:23:24;7.88;;;3.33;;
32850;SDS011;19202;48.992;8.390;2022-10-18T14:29:18;4.85;;;3.38;;
32850;SDS011;19202;48.992;8.390;2022-10-18T14:34:56;4.65;;;3.92;;
32850;SDS011;19202;48.992;8.390;2022-10-18T14:40:36;6.05;;;3.45;;
32850;SDS011;19202;48.992;8.390;2022-10-18T14:52:03;6.40;;;3.53;;
32850;SDS011;19202;48.992;8.390;2022-10-18T14:57:41;4.97;;;3.08;;
32850;SDS011;19202;48.992;8.390;2022-10-18T15:03:19;5.88;;;3.38;;
32850;SDS011;19202;48.992;8.390;2022-10-18T15:08:57;4.35;;;3.47;;
32850;SDS011;19202;48.992;8.390;2022-10-18T15:14:38;6.00;;;3.78;;
32850;SDS011;19202;48.992;8.390;2022-10-18T15:20:23;8.00;;;3.60;;
32850;SDS011;19202;48.992;8.390;2022-10-18T15:26:03;4.43;;;3.47;;
32850;SDS011;19202;48.992;8.390;2022-10-18T15:31:44;4.90;;;3.55;;
32850;SDS011;19202;48.992;8.390;2022-10-18T15:37:29;4.10;;;3.70;;
32850;SDS011;19202;48.992;8.390;2022-10-18T15:43:59;5.45;;;3.50;;
32850;SDS011;19202;48.992;8.390;2022-10-18T15:49:45;7.10;;;3.97;;
32850;SDS011;19202;48.992;8.390;2022-10-18T16:01:14;4.78;;;3.20;;
32850;SDS011;19202;48.992;8.390;2022-10-18T16:06:55;4.53;;;3.40;;
32850;SDS011;19202;48.992;8.390;2022-10-18T16:12:34;6.10;;;3.40;;
32850;SDS011;19202;48.992;8.390;2022-10-18T16:18:13;5.55;;;3.45;;
32850;SDS011;19202;48.992;8.390;2022-10-18T16:23:53;5.28;;;3.00;;
32850;SDS011;19202;48.992;8.390;2022-10-18T16:29:31;4.78;;;3.50;;
32850;SDS011;19202;48.992;8.390;2022-10-18T16:35:09;5.80;;;2.80;;
32850;SDS011;19202;48.992;8.390;2022-10-18T16:40:49;5.80;;;3.33;;
32850;SDS011;19202;48.992;8.390;2022-10-18T16:46:28;4.53;;;3.10;;
32850;SDS011;19202;48.992;8.390;2022-10-18T16:52:08;3.90;;;2.80;;
32850;SDS011;19202;48.992;8.390;2022-10-18T16:57:46;4.82;;;3.15;;
32850;SDS011;19202;48.992;8.390;2022-10-18T17:03:25;4.20;;;2.90;;
32850;SDS011;19202;48.992;8.390;2022-10-18T17:09:03;5.82;;;4.53;;
32850;SDS011;19202;48.992;8.390;2022-10-18T17:14:41;4.57;;;3.78;;
32850;SDS011;19202;48.992;8.390;2022-10-18T17:20:20;7.13;;;3.28;;
32850;SDS011;19202;48.992;8.390;2022-10-18T17:26:00;4.00;;;3.17;;
32850;SDS011;19202;48.992;8.390;2022-10-18T17:31:38;4.32;;;3.28;;
32850;SDS011;19202;48.992;8.390;2022-10-18T17:37:17;5.55;;;3.80;;
32850;SDS011;19202;48.992;8.390;2022-10-18T17:42:55;6.20;;;3.25;;
32850;SDS011;19202;48.992;8.390;2022-10-18T17:48:33;5.60;;;3.28;;
32850;SDS011;19202;48.992;8.390;2022-10-18T17:54:12;7.18;;;3.63;;
32850;SDS011;19202;48.992;8.390;2022-10-18T17:59:50;7.10;;;3.58;;
32850;SDS011;19202;48.992;8.390;2022-10-18T18:05:32;3.95;;;3.40;;
32850;SDS011;19202;48.992;8.390;2022-10-18T18:11:11;4.68;;;3.60;;
32850;SDS011;19202;48.992;8.390;2022-10-18T18:16:50;8.48;;;4.10;;
32850;SDS011;19202;48.992;8.390;2022-10-18T18:22:27;6.88;;;4.10;;
32850;SDS011;19202;48.992;8.390;2022-10-18T18:28:05;14.57;;;4.97;;
32850;SDS011;19202;48.992;8.390;2022-10-18T18:55:37;8.23;;;4.60;;
32850;SDS011;19202;48.992;8.390;2022-10-18T19:01:20;5.70;;;3.83;;
32850;SDS011;19202;48.992;8.390;2022-10-18T19:07:12;5.90;;;3.83;;
32850;SDS011;19202;48.992;8.390;2022-10-18T19:12:50;11.02;;;4.60;;
32850;SDS011;19202;48.992;8.390;2022-10-18T19:18:28;4.95;;;3.45;;
32850;SDS011;19202;48.992;8.390;2022-10-18T19:24:06;6.13;;;3.60;;
32850;SDS011;19202;48.992;8.390;2022-10-18T19:29:44;7.35;;;3.33;;
32850;SDS011;19202;48.992;8.390;2022-10-18T19:35:22;5.57;;;3.30;;
32850;SDS011;19202;48.992;8.390;2022-10-18T19:41:00;9.32;;;3.92;;
32850;SDS011;19202;48.992;8.390;2022-10-18T19:46:38;4.88;;;3.40;;
32850;SDS011;19202;48.992;8.390;2022-10-18T19:52:16;8.23;;;3.60;;
32850;SDS011;19202;48.992;8.390;2022-10-18T19:57:54;5.18;;;3.28;;
32850;SDS011;19202;48.992;8.390;2022-10-18T20:03:32;6.70;;;3.42;;
32850;SDS011;19202;48.992;8.390;2022-10-18T20:09:10;7.97;;;3.17;;
32850;SDS011;19202;48.992;8.390;2022-10-18T20:14:49;5.32;;;3.22;;
32850;SDS011;19202;48.992;8.390;2022-10-18T20:20:27;6.32;;;3.00;;
32850;SDS011;19202;48.992;8.390;2022-10-18T20:26:06;9.60;;;4.18;;
32850;SDS011;19202;48.992;8.390;2022-10-18T20:31:47;8.25;;;3.78;;
32850;SDS011;19202;48.992;8.390;2022-10-18T20:37:24;4.88;;;3.22;;
32850;SDS011;19202;48.992;8.390;2022-10-18T20:43:02;4.32;;;3.33;;
32850;SDS011;19202;48.992;8.390;2022-10-18T20:48:40;6.47;;;4.45;;
32850;SDS011;19202;48.992;8.390;2022-10-18T20:54:18;8.20;;;3.70;;
32850;SDS011;19202;48.992;8.390;2022-10-18T20:59:56;7.75;;;4.05;;
32850;SDS011;19202;48.992;8.390;2022-10-18T21:05:34;7.03;;;3.78;;
32850;SDS011;19202;48.992;8.390;2022-10-18T21:11:12;7.22;;;3.53;;
32850;SDS011;19202;48.992;8.390;2022-10-18T21:16:51;7.68;;;3.88;;
32850;SDS011;19202;48.992;8.390;2022-10-18T21:22:28;7.57;;;4.70;;
32850;SDS011;19202;48.992;8.390;2022-10-18T21:28:07;9.50;;;4.75;;
32850;SDS011;19202;48.992;8.390;2022-10-18T21:33:45;8.60;;;5.03;;
32850;SDS011;19202;48.992;8.390;2022-10-18T22:01:31;12.23;;;7.32;;
32850;SDS011;19202;48.992;8.390;2022-10-18T22:07:11;14.05;;;7.18;;
32850;SDS011;19202;48.992;8.390;2022-10-18T22:12:49;11.82;;;7.07;;
32850;SDS011;19202;48.992;8.390;2022-10-18T22:18:27;14.45;;;9.07;;
32850;SDS011;19202;48.992;8.390;2022-10-18T22:24:06;13.93;;;8.63;;
32850;SDS011;19202;48.992;8.390;2022-10-18T22:29:45;14.30;;;8.43;;
32850;SDS011;19202;48.992;8.390;2022-10-18T22:35:23;13.98;;;9.07;;
32850;SDS011;19202;48.992;8.390;2022-10-18T22:41:02;26.38;;;9.60;;
32850;SDS011;19202;48.992;8.390;2022-10-18T22:46:41;16.33;;;9.25;;
32850;SDS011;19202;48.992;8.390;2022-10-18T22:52:19;15.52;;;9.52;;
32850;SDS011;19202;48.992;8.390;2022-10-18T22:57:57;17.42;;;9.55;;
32850;SDS011;19202;48.992;8.390;2022-10-18T23:03:35;15.57;;;9.52;;
32850;SDS011;19202;48.992;8.390;2022-10-18T23:09:13;13.95;;;8.77;;
32850;SDS011;19202;48.992;8.390;2022-10-18T23:14:51;16.95;;;9.48;;
32850;SDS011;19202;48.992;8.390;2022-10-18T23:20:29;15.68;;;9.23;;
32850;SDS011;19202;48.992;8.390;2022-10-18T23:26:12;15.45;;;9.10;;
32850;SDS011;19202;48.992;8.390;2022-10-18T23:31:52;13.60;;;8.70;;
32850;SDS011;19202;48.992;8.390;2022-10-18T23:37:30;14.75;;;8.70;;
32850;SDS011;19202;48.992;8.390;2022-10-18T23:43:08;14.82;;;9.38;;
32850;SDS011;19202;48.992;8.390;2022-10-18T23:48:46;13.77;;;9.25;;
32850;SDS011;19202;48.992;8.390;2022-10-18T23:54:24;13.75;;;8.55;;
